Aspen, Colorado
Current Conditions -  °F | °C
As of 3:12 AM on Thursday 18 Dec 2014 (Local Time) from KASE Reporting Station
Light Snow Light Snow  
Wind Chill: 19°   Ceiling: 2000
Heat Index: 26°   Visibility: 3mi
Dew Point: 23°   Wind: 6mph
Humidity: 88%   Direction: 190°S
Pressure: 30.02"   Gusts: NA
Location:  39.19°N, 106.81°W
Report Text: KASE 181012Z AUTO 19005KT 3SM -SN BR FEW009 BKN020 OVC027 M03/M05 A3002 RMK AO2 P0001 T10331050
Loading
Personal Weather Stations






























Interactive Weather Map New forecast layout! Learn more

10-Day Weather Forecast

Advertisements
Track Severe Weather on mobile